Needham Market, United Kingdom
Current Conditions -  °F | °C
As of 10:50 AM on Wednesday 22 Oct 2014 (Local Time) from EGUW Reporting Station
Scattered Clouds Scattered Clouds  
Wind Chill: 50°   Ceiling: Unl
Heat Index: 50°   Visibility: 6mi
Dew Point: 43°   Wind: 15mph
Humidity: 76%   Direction: 280°W
Pressure: 30.21"   Gusts: NA
Location:  52.16°N, 1.05°E
Report Text: EGUW 220950Z 28013KT 9999 FEW018 SCT250 10/06 Q1023 BLU NOSIG
Loading
Personal Weather Stations






























Interactive Weather Map
Tropical Storm Tracking
New forecast layout! Learn more

10-Day Weather Forecast

Advertisements
Track Severe Weather on mobile